Aérodrome :
LOGIN :

S'inscrire | Disclaimer

   EN    FR    IT 

 










Légende :    VFR   VFR Marginal   IFR   IFR Intensif   IFR Très Intensif
Visi : 
Plafond : 
>= 8 km
>= 3000ft
5 à 8 km
1000 à 3000 ft
1500m à 5 km
500 à 1000 ft
800 à 1500m
200 à 500 ft
< 800m
< 200 ft
Symboles :   Orages  Brouillard  Fortes neiges  Fortes précipitations  Vent > 20 kt
SIGMETs :   Divers  Orages  Givrage  Turbulence  Onde Orograph.  Cendres Volcan.







- Altitude de l'aérodrome : 36 ft
- Code IATA : LTQ
- Voir les cartes d'approche


LFAT - Le Touquet

DERNIER METAR :
  • 240430Z AUTO 27005KT 9999 BKN013 BKN018 17/15 Q1017

METARs EXPIRÉS :
  • 240400Z AUTO 27005KT 230V310 9999 OVC014 17/15 Q1017
  • 240330Z AUTO 26006KT 220V290 9999 BKN012 OVC190 17/15 Q1017
  • 240300Z AUTO 27004KT 220V300 9999 BKN011 17/15 Q1017
  • 240230Z AUTO 26006KT 230V290 9999 BKN011 OVC170 17/15 Q1017
  • 240200Z AUTO 27007KT 240V310 9999 BKN010 OVC170 17/15 Q1017

Prévision TAF périmée.
ATIS : +33 3 21 06 62 84
Pas de NOTAMs connus pour ce terrain.



MET'MAP, la Météo Aéronautique d'un coup d'oeil ! - Copyright ORBIFLY Décembre 2007 - Disclaimer

ORBIFLY MET'MAP TEAM :

Programmation & Développement : Alexandra Zaïnal
Conception & Développement : Baudouin d'Aumeries
Co-Programmation & Développement : Marc-Olivier Méhu
Soutien technique & logistique : Manuel Goepfert

Contact : metmap@orbifly.com




SOURCES & CREDITS :

   NOAA